createdAt,value
2023-05-18T00:04:44.468Z,19.1
2023-05-18T00:15:27.412Z,19.1
2023-05-18T00:20:49.288Z,19.2
2023-05-18T00:31:46.377Z,19.1
2023-05-18T00:37:24.197Z,19.1
2023-05-18T00:42:59.762Z,19.1
2023-05-18T00:48:52.400Z,19.1
2023-05-18T01:00:19.854Z,19.1
2023-05-18T01:11:33.250Z,19.1
2023-05-18T01:17:24.973Z,19.1
2023-05-18T01:23:16.063Z,19.1
2023-05-18T01:28:52.607Z,19.1
2023-05-18T01:40:22.750Z,19.1
2023-05-18T01:57:12.462Z,19.1
2023-05-18T02:03:06.051Z,19.1
2023-05-18T02:08:42.008Z,19.1
2023-05-18T02:14:33.137Z,19.1
2023-05-18T02:20:26.616Z,19.1
2023-05-18T02:26:20.418Z,19.1
2023-05-18T02:31:56.736Z,19.1
2023-05-18T02:43:25.220Z,19.1
2023-05-18T02:49:02.383Z,19.1
2023-05-18T02:54:53.845Z,19.1
2023-05-18T03:00:47.367Z,19.1
2023-05-18T03:06:40.612Z,19.1
2023-05-18T03:12:32.718Z,19.1
2023-05-18T03:23:31.375Z,19.1
2023-05-18T03:29:07.790Z,19.1
2023-05-18T03:35:00.036Z,19.1
2023-05-18T03:40:51.882Z,19.1
2023-05-18T03:52:20.042Z,19.1
2023-05-18T03:58:12.438Z,19.1
2023-05-18T04:04:05.533Z,19.1
2023-05-18T04:09:59.578Z,19.1
2023-05-18T04:15:51.000Z,19.1
2023-05-18T04:21:44.186Z,19.1
2023-05-18T04:27:35.869Z,19.1
2023-05-18T04:33:26.941Z,19.1
2023-05-18T04:39:04.764Z,19.1
2023-05-18T04:44:56.426Z,19.1
2023-05-18T04:50:49.105Z,19.1
2023-05-18T04:56:25.859Z,19.1
2023-05-18T05:02:16.874Z,19.1
2023-05-18T05:08:12.136Z,19.1
2023-05-18T05:14:04.328Z,19.1
2023-05-18T05:19:56.268Z,19.1
2023-05-18T05:25:48.847Z,19.1
2023-05-18T05:37:17.807Z,19.1
2023-05-18T05:43:11.678Z,19.1
2023-05-18T05:49:03.768Z,19.1
2023-05-18T05:54:55.302Z,19.1
2023-05-18T06:00:46.974Z,19.1
2023-05-18T06:06:39.944Z,19.1
2023-05-18T06:12:33.764Z,19.1
2023-05-18T06:18:29.823Z,19.1
2023-05-18T06:24:21.746Z,19.1
2023-05-18T06:30:13.078Z,19.1
2023-05-18T06:36:05.979Z,19
2023-05-18T06:41:43.571Z,19.1
2023-05-18T06:47:34.826Z,19.1
2023-05-18T06:53:11.024Z,19.1
2023-05-18T06:58:47.766Z,19.1
2023-05-18T07:04:39.919Z,19.1
2023-05-18T07:15:52.960Z,19.1
2023-05-18T07:21:47.632Z,19
2023-05-18T07:27:39.035Z,19
2023-05-18T07:33:16.139Z,19.1
2023-05-18T07:39:08.372Z,19.1
2023-05-18T07:44:45.013Z,19
2023-05-18T07:50:37.615Z,19
2023-05-18T07:56:13.722Z,19
2023-05-18T08:01:49.454Z,19
2023-05-18T08:07:27.494Z,19
2023-05-18T08:13:03.106Z,19
2023-05-18T08:19:12.171Z,19
2023-05-18T08:24:49.202Z,19
2023-05-18T08:30:26.542Z,19
2023-05-18T08:36:04.018Z,19
2023-05-18T08:47:16.641Z,19
2023-05-18T08:52:56.634Z,19
2023-05-18T08:58:33.252Z,19
2023-05-18T09:04:10.083Z,19
2023-05-18T09:09:46.659Z,19
2023-05-18T09:15:25.267Z,19
2023-05-18T09:21:02.195Z,19
2023-05-18T09:26:38.446Z,19
2023-05-18T09:32:17.626Z,19
2023-05-18T09:37:54.913Z,19
2023-05-18T09:54:13.704Z,19
2023-05-18T09:59:48.428Z,19
2023-05-18T10:05:28.965Z,19
2023-05-18T10:26:37.066Z,19
2023-05-18T10:32:18.922Z,19
2023-05-18T10:38:11.538Z,19
2023-05-18T10:43:35.847Z,19
2023-05-18T10:48:41.654Z,19
2023-05-18T10:54:03.507Z,18.9
2023-05-18T11:00:22.714Z,18.9
2023-05-18T11:05:44.021Z,19
2023-05-18T11:16:41.526Z,18.9
2023-05-18T11:22:17.677Z,19
2023-05-18T11:28:10.044Z,18.9
2023-05-18T11:34:05.064Z,19
2023-05-18T11:39:51.918Z,18.9
2023-05-18T11:45:20.334Z,18.9
2023-05-18T11:50:59.211Z,18.9
2023-05-18T12:01:59.727Z,18.9
2023-05-18T12:07:43.808Z,18.9
2023-05-18T12:18:42.980Z,19
2023-05-18T12:24:17.955Z,18.9
2023-05-18T12:29:54.088Z,18.9
2023-05-18T12:35:16.026Z,18.9
2023-05-18T12:40:50.671Z,18.9
2023-05-18T12:46:45.246Z,18.9
2023-05-18T12:52:39.202Z,19
2023-05-18T12:58:30.402Z,18.9
2023-05-18T13:04:07.830Z,18.9
2023-05-18T13:09:45.050Z,18.9
2023-05-18T13:16:03.167Z,18.9
2023-05-18T13:21:58.400Z,18.9
2023-05-18T13:27:36.808Z,18.9
2023-05-18T13:32:57.251Z,19
2023-05-18T13:38:50.750Z,18.9
2023-05-18T13:44:11.665Z,18.9
2023-05-18T13:49:49.244Z,18.9
2023-05-18T13:55:27.688Z,18.9
2023-05-18T14:01:19.720Z,18.9
2023-05-18T14:12:34.037Z,18.9
2023-05-18T14:18:26.066Z,18.9
2023-05-18T14:24:17.126Z,18.9
2023-05-18T14:30:09.223Z,18.9
2023-05-18T14:36:01.074Z,18.9
2023-05-18T14:41:38.504Z,18.9
2023-05-18T14:47:46.412Z,18.9
2023-05-18T14:53:40.070Z,18.9
2023-05-18T14:59:30.086Z,18.9
2023-05-18T15:05:23.693Z,18.9
2023-05-18T15:11:15.353Z,18.9
2023-05-18T15:16:50.688Z,18.9
2023-05-18T15:22:43.206Z,18.9
2023-05-18T15:28:36.507Z,18.9
2023-05-18T15:34:27.682Z,18.9
2023-05-18T15:40:19.386Z,18.9
2023-05-18T15:46:11.431Z,19
2023-05-18T15:51:46.900Z,19.1
2023-05-18T15:57:39.111Z,19.3
2023-05-18T16:03:31.794Z,19.4
2023-05-18T16:09:07.279Z,19.6
2023-05-18T16:14:46.438Z,19.8
2023-05-18T16:20:39.206Z,20.1
2023-05-18T16:31:52.220Z,20.5
2023-05-18T16:37:43.997Z,20.7
2023-05-18T16:43:36.352Z,20.9
2023-05-18T16:49:28.929Z,21.1
2023-05-18T16:55:23.681Z,21.3
2023-05-18T17:01:26.466Z,21.4
2023-05-18T17:07:23.237Z,21.6
2023-05-18T17:13:02.832Z,21.8
2023-05-18T17:18:39.023Z,21.9
2023-05-18T17:24:31.222Z,22.1
2023-05-18T17:30:36.746Z,22.3
2023-05-18T17:36:13.077Z,22.4
2023-05-18T17:42:04.665Z,22.5
2023-05-18T17:47:57.296Z,22.6
2023-05-18T17:53:48.449Z,22.8
2023-05-18T17:59:24.341Z,22.8
2023-05-18T18:05:18.085Z,22.9
2023-05-18T18:10:54.659Z,23.1
2023-05-18T18:16:47.044Z,23.1
2023-05-18T18:22:24.537Z,23.1
2023-05-18T18:33:21.800Z,23.1
2023-05-18T18:39:14.109Z,23.1
2023-05-18T18:45:05.519Z,23.1
2023-05-18T18:50:58.013Z,23.2
2023-05-18T18:56:49.888Z,23.2
2023-05-18T19:02:24.920Z,23.2
2023-05-18T19:08:17.794Z,23.2
2023-05-18T19:13:54.589Z,23.2
2023-05-18T19:19:47.147Z,23.2
2023-05-18T19:25:39.439Z,23.2
2023-05-18T19:31:31.802Z,23.2
2023-05-18T19:43:03.266Z,23.3
2023-05-18T19:48:56.762Z,23.3
2023-05-18T19:54:46.968Z,23.4
2023-05-18T20:00:38.938Z,23.4
2023-05-18T20:06:16.771Z,23.4
2023-05-18T20:12:07.771Z,23.4
2023-05-18T20:18:00.238Z,23.5
2023-05-18T20:34:37.377Z,23.4
2023-05-18T20:40:14.256Z,23.4
2023-05-18T20:45:50.047Z,23.3
2023-05-18T20:51:42.624Z,23.3
2023-05-18T20:57:34.493Z,23.3
2023-05-18T21:03:26.396Z,23.2
2023-05-18T21:08:51.011Z,23.1
2023-05-18T21:14:28.185Z,23.1
2023-05-18T21:20:19.713Z,23
2023-05-18T21:26:11.061Z,23
2023-05-18T21:32:03.803Z,22.9
2023-05-18T21:37:55.223Z,22.9
2023-05-18T21:48:56.009Z,22.8
2023-05-18T21:54:32.854Z,22.6
2023-05-18T22:00:09.230Z,22.6
2023-05-18T22:06:01.908Z,22.6
2023-05-18T22:11:52.710Z,22.5
2023-05-18T22:17:13.310Z,22.4
2023-05-18T22:23:02.165Z,22.4
2023-05-18T22:28:37.047Z,22.3
2023-05-18T22:34:14.063Z,22.3
2023-05-18T22:45:25.145Z,22.1
2023-05-18T22:51:17.271Z,22.1
2023-05-18T22:56:53.876Z,22.1
2023-05-18T23:02:29.927Z,22
2023-05-18T23:08:06.112Z,22
2023-05-18T23:13:57.946Z,21.9
2023-05-18T23:19:49.609Z,21.9
2023-05-18T23:25:41.240Z,21.8
2023-05-18T23:31:33.493Z,21.8
2023-05-18T23:37:25.736Z,21.7
2023-05-18T23:43:17.924Z,21.7
2023-05-18T23:49:10.185Z,21.6
2023-05-18T23:55:01.583Z,21.6
